createdAt,value
2019-05-16T00:00:12.520Z,10.05
2019-05-16T00:01:12.576Z,10.06
2019-05-16T00:02:12.512Z,10.06
2019-05-16T00:03:12.559Z,10.06
2019-05-16T00:04:12.473Z,10.06
2019-05-16T00:05:12.571Z,10.03
2019-05-16T00:06:12.477Z,9.94
2019-05-16T00:07:12.452Z,9.91
2019-05-16T00:08:13.233Z,10.02
2019-05-16T00:09:12.424Z,10.02
2019-05-16T00:10:12.409Z,9.95
2019-05-16T00:11:12.438Z,10.00
2019-05-16T00:12:12.390Z,10.03
2019-05-16T00:13:12.421Z,10.05
2019-05-16T00:14:12.376Z,10.05
2019-05-16T00:15:13.463Z,10.06
2019-05-16T00:16:12.364Z,10.00
2019-05-16T00:17:20.339Z,9.95
2019-05-16T00:18:12.323Z,10.03
2019-05-16T00:19:19.865Z,9.95
2019-05-16T00:20:12.314Z,9.97
2019-05-16T00:21:13.330Z,9.99
2019-05-16T00:22:12.279Z,10.02
2019-05-16T00:23:12.294Z,10.02
2019-05-16T00:24:12.258Z,10.00
2019-05-16T00:25:12.301Z,9.90
2019-05-16T00:26:12.259Z,9.94
2019-05-16T00:27:12.315Z,9.92
2019-05-16T00:28:12.218Z,9.91
2019-05-16T00:29:12.227Z,9.92
2019-05-16T00:30:12.193Z,9.91
2019-05-16T00:31:12.276Z,9.87
2019-05-16T00:32:12.175Z,9.91
2019-05-16T00:33:12.309Z,9.84
2019-05-16T00:34:12.157Z,9.91
2019-05-16T00:35:12.163Z,9.77
2019-05-16T00:36:12.142Z,9.74
2019-05-16T00:37:12.177Z,9.80
2019-05-16T00:38:12.134Z,9.76
2019-05-16T00:39:12.192Z,9.90
2019-05-16T00:40:12.086Z,9.91
2019-05-16T00:41:12.133Z,9.95
2019-05-16T00:42:12.071Z,9.92
2019-05-16T00:43:12.113Z,9.90
2019-05-16T00:44:12.043Z,9.80
2019-05-16T00:45:13.487Z,9.81
2019-05-16T00:46:12.023Z,9.76
2019-05-16T00:47:12.071Z,9.72
2019-05-16T00:48:12.007Z,9.77
2019-05-16T00:49:12.057Z,9.80
2019-05-16T00:50:11.978Z,9.87
2019-05-16T00:51:12.067Z,9.87
2019-05-16T00:52:11.971Z,9.87
2019-05-16T00:53:11.978Z,9.90
2019-05-16T00:54:11.938Z,9.87
2019-05-16T00:55:11.997Z,9.88
2019-05-16T00:56:11.913Z,9.76
2019-05-16T00:57:11.933Z,9.90
2019-05-16T00:58:11.904Z,9.82
2019-05-16T00:59:11.895Z,9.80
2019-05-16T01:00:11.877Z,9.80
2019-05-16T01:01:12.953Z,9.85
2019-05-16T01:02:12.256Z,9.84
2019-05-16T01:03:29.161Z,9.80
2019-05-16T01:04:11.824Z,9.74
2019-05-16T01:05:14.565Z,9.81
2019-05-16T01:06:19.178Z,9.82
2019-05-16T01:07:12.813Z,9.84
2019-05-16T01:08:11.789Z,9.76
2019-05-16T01:09:11.771Z,9.81
2019-05-16T01:10:11.786Z,9.76
2019-05-16T01:11:11.753Z,9.74
2019-05-16T01:12:11.831Z,9.73
2019-05-16T01:13:11.727Z,9.67
2019-05-16T01:14:11.816Z,9.67
2019-05-16T01:15:11.712Z,9.58
2019-05-16T01:16:11.726Z,9.69
2019-05-16T01:17:11.696Z,9.69
2019-05-16T01:18:11.739Z,9.67
2019-05-16T01:19:11.668Z,9.63
2019-05-16T01:20:11.755Z,9.72
2019-05-16T01:21:11.644Z,9.64
2019-05-16T01:22:11.701Z,9.69
2019-05-16T01:23:11.632Z,9.69
2019-05-16T01:24:11.678Z,9.64
2019-05-16T01:25:11.615Z,9.58
2019-05-16T01:26:11.691Z,9.66
2019-05-16T01:27:11.592Z,9.63
2019-05-16T01:28:11.604Z,9.74
2019-05-16T01:29:11.891Z,9.64
2019-05-16T01:30:11.617Z,9.74
2019-05-16T01:31:11.529Z,9.72
2019-05-16T01:32:11.559Z,9.63
2019-05-16T01:33:11.524Z,9.56
2019-05-16T01:34:11.543Z,9.64
2019-05-16T01:35:11.487Z,9.59
2019-05-16T01:36:11.559Z,9.67
2019-05-16T01:37:11.485Z,9.69
2019-05-16T01:38:11.469Z,9.69
2019-05-16T01:39:11.448Z,9.66
2019-05-16T01:40:11.481Z,9.49
2019-05-16T01:41:11.421Z,9.58
2019-05-16T01:42:11.432Z,9.66
2019-05-16T01:43:11.398Z,9.59
2019-05-16T01:44:11.406Z,9.59
2019-05-16T01:45:11.379Z,9.56
2019-05-16T01:46:11.421Z,9.44
2019-05-16T01:47:11.369Z,9.54
2019-05-16T01:48:14.767Z,9.49
2019-05-16T01:49:11.341Z,9.52
2019-05-16T01:50:11.345Z,9.49
2019-05-16T01:51:11.320Z,9.52
2019-05-16T01:52:12.416Z,9.49
2019-05-16T01:53:11.296Z,9.44
2019-05-16T01:54:12.295Z,9.39
2019-05-16T01:55:11.267Z,9.48
2019-05-16T01:56:11.286Z,9.47
2019-05-16T01:57:11.260Z,9.47
2019-05-16T01:58:11.298Z,9.42
2019-05-16T01:59:11.224Z,9.42
2019-05-16T02:00:11.322Z,9.44
2019-05-16T02:01:15.758Z,9.48
2019-05-16T02:02:11.227Z,9.39
2019-05-16T02:03:11.187Z,9.42
2019-05-16T02:04:12.347Z,9.39
2019-05-16T02:05:11.159Z,9.40
2019-05-16T02:06:11.256Z,9.36
2019-05-16T02:07:12.221Z,9.39
2019-05-16T02:08:11.193Z,9.42
2019-05-16T02:09:11.483Z,9.39
2019-05-16T02:10:11.174Z,9.33
2019-05-16T02:11:11.090Z,9.30
2019-05-16T02:12:11.084Z,9.34
2019-05-16T02:13:11.089Z,9.40
2019-05-16T02:14:11.100Z,9.34
2019-05-16T02:15:11.049Z,9.36
2019-05-16T02:16:11.113Z,9.31
2019-05-16T02:17:11.386Z,9.31
2019-05-16T02:18:11.069Z,9.30
2019-05-16T02:19:11.006Z,9.29
2019-05-16T02:20:11.038Z,9.31
2019-05-16T02:21:10.985Z,9.34
2019-05-16T02:22:11.053Z,9.22
2019-05-16T02:23:10.978Z,9.27
2019-05-16T02:24:10.965Z,9.26
2019-05-16T02:25:10.946Z,9.15
2019-05-16T02:26:10.977Z,9.18
2019-05-16T02:27:10.923Z,9.18
2019-05-16T02:28:11.024Z,9.16
2019-05-16T02:29:13.719Z,9.12
2019-05-16T02:30:12.377Z,9.29
2019-05-16T02:31:12.026Z,9.13
2019-05-16T02:32:12.970Z,9.24
2019-05-16T02:33:11.599Z,9.19
2019-05-16T02:34:12.212Z,9.15
2019-05-16T02:35:11.957Z,9.21
2019-05-16T02:36:11.163Z,9.22
2019-05-16T02:37:23.822Z,9.18
2019-05-16T02:38:11.812Z,9.24
2019-05-16T02:39:12.807Z,9.26
2019-05-16T02:40:11.898Z,9.18
2019-05-16T02:41:10.790Z,9.13
2019-05-16T02:42:11.992Z,9.15
2019-05-16T02:43:12.528Z,9.29
2019-05-16T02:44:12.049Z,9.33
2019-05-16T02:45:11.198Z,9.31
2019-05-16T02:46:11.953Z,9.22
2019-05-16T02:47:11.114Z,9.29
2019-05-16T02:48:11.151Z,9.27
2019-05-16T02:49:11.594Z,9.33
2019-05-16T02:50:12.386Z,9.30
2019-05-16T02:51:11.154Z,9.29
2019-05-16T02:52:11.035Z,9.26
2019-05-16T02:53:12.779Z,9.21
2019-05-16T02:54:11.139Z,9.24
2019-05-16T02:55:11.590Z,9.21
2019-05-16T02:56:12.125Z,9.12
2019-05-16T02:57:11.478Z,9.29
2019-05-16T02:58:11.454Z,9.18
2019-05-16T02:59:11.877Z,9.24
2019-05-16T03:00:12.121Z,9.21
2019-05-16T03:01:11.060Z,9.26
2019-05-16T03:02:11.371Z,9.13
2019-05-16T03:03:11.996Z,9.16
2019-05-16T03:04:11.199Z,9.24
2019-05-16T03:05:12.078Z,9.27
2019-05-16T03:06:11.195Z,9.19
2019-05-16T03:07:13.500Z,9.12
2019-05-16T03:08:12.238Z,9.24
2019-05-16T03:09:11.554Z,9.16
2019-05-16T03:10:11.080Z,9.12
2019-05-16T03:11:11.900Z,9.13
2019-05-16T03:12:10.810Z,9.11
2019-05-16T03:13:11.332Z,9.13
2019-05-16T03:14:11.182Z,9.13
2019-05-16T03:15:11.037Z,9.12
2019-05-16T03:16:11.711Z,9.12
2019-05-16T03:17:12.478Z,9.16
2019-05-16T03:18:11.480Z,9.12
2019-05-16T03:19:11.519Z,9.16
2019-05-16T03:20:11.723Z,9.26
2019-05-16T03:21:11.174Z,9.21
2019-05-16T03:22:11.668Z,9.12
2019-05-16T03:23:11.556Z,9.16
2019-05-16T03:24:11.244Z,9.11
2019-05-16T03:25:12.311Z,9.08
2019-05-16T03:26:11.888Z,9.09
2019-05-16T03:27:10.849Z,9.05
2019-05-16T03:28:11.268Z,9.16
2019-05-16T03:29:11.323Z,9.16
2019-05-16T03:30:15.377Z,9.13
2019-05-16T03:31:15.128Z,9.16
2019-05-16T03:32:14.046Z,9.13
2019-05-16T03:33:19.056Z,9.08
2019-05-16T03:34:16.173Z,9.11
2019-05-16T03:35:15.508Z,9.11
2019-05-16T03:36:14.848Z,9.08
2019-05-16T03:37:14.305Z,9.16
2019-05-16T03:38:12.093Z,9.09
2019-05-16T03:39:10.816Z,9.15
2019-05-16T03:40:11.047Z,9.15
2019-05-16T03:41:11.513Z,9.08
2019-05-16T03:42:12.709Z,9.13
2019-05-16T03:43:11.581Z,9.11
2019-05-16T03:44:11.316Z,9.13
2019-05-16T03:45:10.846Z,9.18
2019-05-16T03:46:11.874Z,9.19
2019-05-16T03:47:11.184Z,9.11
2019-05-16T03:48:11.985Z,9.09
2019-05-16T03:49:11.325Z,9.18
2019-05-16T03:50:11.141Z,9.05
2019-05-16T03:51:11.269Z,9.12
2019-05-16T03:52:11.326Z,9.09
2019-05-16T03:53:11.698Z,9.09
2019-05-16T03:54:12.342Z,9.08
2019-05-16T03:55:11.065Z,9.03
2019-05-16T03:56:11.174Z,9.12
2019-05-16T03:57:11.531Z,9.11
2019-05-16T03:58:11.623Z,9.12
2019-05-16T03:59:10.931Z,9.13
2019-05-16T04:00:11.860Z,8.99
2019-05-16T04:01:11.181Z,9.08
2019-05-16T04:02:10.825Z,9.12
2019-05-16T04:03:16.868Z,8.99
2019-05-16T04:04:11.675Z,9.03
2019-05-16T04:05:11.425Z,8.99
2019-05-16T04:06:11.978Z,8.96
2019-05-16T04:07:10.946Z,9.02
2019-05-16T04:08:18.610Z,9.03
2019-05-16T04:09:12.203Z,9.08
2019-05-16T04:10:10.941Z,8.99
2019-05-16T04:11:11.742Z,9.05
2019-05-16T04:12:11.011Z,9.09
2019-05-16T04:13:11.512Z,9.11
2019-05-16T04:14:10.846Z,9.11
2019-05-16T04:15:11.421Z,9.13
2019-05-16T04:16:11.853Z,9.11
2019-05-16T04:17:10.915Z,9.16
2019-05-16T04:18:11.117Z,9.15
2019-05-16T04:19:11.491Z,9.22
2019-05-16T04:20:11.530Z,9.03
2019-05-16T04:21:11.799Z,9.21
2019-05-16T04:22:10.490Z,9.24
2019-05-16T04:23:11.235Z,9.19
2019-05-16T04:24:12.166Z,9.18
2019-05-16T04:25:11.297Z,9.19
2019-05-16T04:26:11.336Z,9.22
2019-05-16T04:27:11.978Z,9.22
2019-05-16T04:28:11.595Z,9.26
2019-05-16T04:29:11.890Z,9.29
2019-05-16T04:30:11.803Z,9.24
2019-05-16T04:31:10.947Z,9.26
2019-05-16T04:32:10.998Z,9.26
2019-05-16T04:33:10.896Z,9.36
2019-05-16T04:34:11.689Z,9.30
2019-05-16T04:35:11.281Z,9.29
2019-05-16T04:36:11.053Z,9.40
2019-05-16T04:37:11.511Z,9.40
2019-05-16T04:38:13.081Z,9.52
2019-05-16T04:39:11.825Z,9.45
2019-05-16T04:40:12.073Z,9.47
2019-05-16T04:41:11.601Z,9.45
2019-05-16T04:42:11.037Z,9.51
2019-05-16T04:43:11.387Z,9.52
2019-05-16T04:44:11.559Z,9.51
2019-05-16T04:45:11.873Z,9.54
2019-05-16T04:46:11.645Z,9.51
2019-05-16T04:47:11.019Z,9.49
2019-05-16T04:48:16.355Z,9.54
2019-05-16T04:49:11.167Z,9.54
2019-05-16T04:50:14.864Z,9.55
2019-05-16T04:51:10.565Z,9.52
2019-05-16T04:52:11.191Z,9.51
2019-05-16T04:53:11.476Z,9.52
2019-05-16T04:54:11.438Z,9.54
2019-05-16T04:55:11.851Z,9.51
2019-05-16T04:56:11.087Z,9.55
2019-05-16T04:57:11.832Z,9.51
2019-05-16T04:58:10.703Z,9.49
2019-05-16T04:59:15.921Z,9.58
2019-05-16T05:00:11.172Z,9.59
2019-05-16T05:01:11.113Z,9.59
2019-05-16T05:02:12.104Z,9.69
2019-05-16T05:03:11.945Z,9.66
2019-05-16T05:04:14.429Z,9.63
2019-05-16T05:05:12.532Z,9.56
2019-05-16T05:06:11.321Z,9.49
2019-05-16T05:07:11.134Z,9.49
2019-05-16T05:08:10.825Z,9.55
2019-05-16T05:09:11.725Z,9.58
2019-05-16T05:10:11.322Z,9.59
2019-05-16T05:11:10.683Z,9.56
2019-05-16T05:12:11.355Z,9.62
2019-05-16T05:13:10.993Z,9.52
2019-05-16T05:14:10.437Z,9.62
2019-05-16T05:15:11.157Z,9.62
2019-05-16T05:16:10.630Z,9.62
2019-05-16T05:17:10.697Z,9.64
2019-05-16T05:18:10.203Z,9.70
2019-05-16T05:19:10.886Z,9.84
2019-05-16T05:20:10.678Z,9.69
2019-05-16T05:21:11.597Z,9.72
2019-05-16T05:22:10.482Z,9.80
2019-05-16T05:23:09.882Z,9.82
2019-05-16T05:24:10.897Z,9.81
2019-05-16T05:25:10.864Z,9.80
2019-05-16T05:26:10.775Z,9.77
2019-05-16T05:27:10.501Z,9.82
2019-05-16T05:28:10.062Z,9.87
2019-05-16T05:29:10.343Z,9.84
2019-05-16T05:30:10.571Z,9.90
2019-05-16T05:31:10.882Z,9.95
2019-05-16T05:32:14.022Z,9.88
2019-05-16T05:33:10.195Z,9.85
2019-05-16T05:34:10.604Z,9.90
2019-05-16T05:35:10.544Z,9.95
2019-05-16T05:36:12.444Z,9.90
2019-05-16T05:37:12.566Z,9.99
2019-05-16T05:38:10.537Z,10.02
2019-05-16T05:39:12.982Z,10.03
2019-05-16T05:40:11.012Z,10.07
2019-05-16T05:41:10.784Z,10.10
2019-05-16T05:42:10.505Z,10.10
2019-05-16T05:43:10.597Z,10.18
2019-05-16T05:44:10.679Z,10.24
2019-05-16T05:45:11.014Z,10.25
2019-05-16T05:46:10.962Z,10.27
2019-05-16T05:47:10.760Z,10.41
2019-05-16T05:48:10.667Z,10.42
2019-05-16T05:49:10.525Z,10.43
2019-05-16T05:50:10.855Z,10.39
2019-05-16T05:51:11.086Z,10.38
2019-05-16T05:52:11.739Z,10.41
2019-05-16T05:53:10.234Z,10.62
2019-05-16T05:54:10.926Z,10.61
2019-05-16T05:55:10.574Z,10.48
2019-05-16T05:56:11.264Z,10.48
2019-05-16T05:57:09.915Z,10.62
2019-05-16T05:58:10.092Z,10.55
2019-05-16T05:59:11.378Z,10.69
2019-05-16T06:00:09.928Z,10.69
2019-05-16T06:01:10.888Z,10.75
2019-05-16T06:02:11.162Z,10.68
2019-05-16T06:03:10.553Z,10.76
2019-05-16T06:04:10.583Z,10.77
2019-05-16T06:05:10.604Z,10.97
2019-05-16T06:06:10.559Z,11.10
2019-05-16T06:07:10.146Z,11.12
2019-05-16T06:08:10.545Z,11.26
2019-05-16T06:09:18.291Z,11.53
2019-05-16T06:10:10.674Z,11.53
2019-05-16T06:11:10.004Z,11.60
2019-05-16T06:12:10.492Z,11.89
2019-05-16T06:13:10.952Z,11.89
2019-05-16T06:14:09.844Z,11.80
2019-05-16T06:15:10.061Z,12.00
2019-05-16T06:16:10.580Z,11.86
2019-05-16T06:17:11.282Z,11.76
2019-05-16T06:18:10.649Z,11.83
2019-05-16T06:19:10.937Z,11.80
2019-05-16T06:20:14.051Z,11.83
2019-05-16T06:21:11.475Z,11.81
2019-05-16T06:22:10.221Z,11.96
2019-05-16T06:23:10.645Z,12.03
2019-05-16T06:24:10.569Z,12.15
2019-05-16T06:25:13.199Z,12.11
2019-05-16T06:26:12.306Z,12.15
2019-05-16T06:27:09.822Z,12.15
2019-05-16T06:28:10.438Z,12.12
2019-05-16T06:29:10.377Z,12.00
2019-05-16T06:30:11.118Z,12.05
2019-05-16T06:31:13.078Z,12.18
2019-05-16T06:32:10.283Z,12.03
2019-05-16T06:33:10.236Z,12.00
2019-05-16T06:34:14.468Z,11.89
2019-05-16T06:35:09.765Z,11.91
2019-05-16T06:36:10.831Z,11.85
2019-05-16T06:37:09.842Z,11.99
2019-05-16T06:38:09.947Z,11.85
2019-05-16T06:39:11.208Z,11.97
2019-05-16T06:40:08.140Z,11.88
2019-05-16T06:41:10.204Z,11.78
2019-05-16T06:42:09.820Z,11.81
2019-05-16T06:43:08.135Z,12.00
2019-05-16T06:44:10.520Z,12.12
2019-05-16T06:45:10.372Z,12.15
2019-05-16T06:46:08.073Z,12.20
2019-05-16T06:47:16.872Z,12.20
2019-05-16T06:48:10.015Z,12.17
2019-05-16T06:49:10.209Z,12.30
2019-05-16T06:50:08.039Z,12.26
2019-05-16T06:51:10.573Z,12.03
2019-05-16T06:52:10.277Z,12.11
2019-05-16T06:53:10.251Z,11.88
2019-05-16T06:54:09.931Z,11.95
2019-05-16T06:55:10.166Z,12.07
2019-05-16T06:56:10.330Z,12.21
2019-05-16T06:57:10.394Z,12.25
2019-05-16T06:58:10.406Z,12.55
2019-05-16T06:59:10.170Z,12.65
2019-05-16T07:00:07.924Z,12.98
2019-05-16T07:01:10.359Z,13.19
2019-05-16T07:02:07.917Z,13.36
2019-05-16T07:03:10.241Z,13.36
2019-05-16T07:04:10.230Z,13.67
2019-05-16T07:05:10.031Z,13.82
2019-05-16T07:06:11.033Z,14.08
2019-05-16T07:07:11.959Z,14.03
2019-05-16T07:08:07.899Z,13.83
2019-05-16T07:09:10.319Z,13.87
2019-05-16T07:10:09.769Z,13.76
2019-05-16T07:11:07.803Z,13.95
2019-05-16T07:12:07.816Z,13.93
2019-05-16T07:13:10.227Z,13.86
2019-05-16T07:14:10.344Z,13.87
2019-05-16T07:15:11.904Z,13.40
2019-05-16T07:16:09.748Z,13.27
2019-05-16T07:17:09.712Z,12.98
2019-05-16T07:18:10.800Z,13.05
2019-05-16T07:19:10.500Z,13.16
2019-05-16T07:20:10.197Z,13.27
2019-05-16T07:21:07.700Z,13.33
2019-05-16T07:22:07.790Z,13.16
2019-05-16T07:23:09.943Z,13.13
2019-05-16T07:24:07.702Z,13.31
2019-05-16T07:25:07.662Z,13.30
2019-05-16T07:26:09.721Z,13.36
2019-05-16T07:27:11.552Z,13.27
2019-05-16T07:28:10.092Z,13.37
2019-05-16T07:29:07.599Z,13.49
2019-05-16T07:30:07.639Z,13.39
2019-05-16T07:31:17.647Z,13.45
2019-05-16T07:32:08.566Z,13.42
2019-05-16T07:33:09.684Z,13.40
2019-05-16T07:34:10.173Z,13.23
2019-05-16T07:35:09.624Z,13.40
2019-05-16T07:36:09.746Z,13.24
2019-05-16T07:37:07.583Z,13.08
2019-05-16T07:38:07.513Z,13.05
2019-05-16T07:39:07.596Z,12.86
2019-05-16T07:40:19.471Z,12.84
2019-05-16T07:41:11.047Z,12.76
2019-05-16T07:42:11.053Z,12.87
2019-05-16T07:43:07.457Z,12.94
2019-05-16T07:44:10.570Z,13.09
2019-05-16T07:45:10.001Z,13.06
2019-05-16T07:46:07.444Z,12.98
2019-05-16T07:47:07.422Z,13.03
2019-05-16T07:48:07.418Z,12.98
2019-05-16T07:49:07.381Z,12.98
2019-05-16T07:50:07.469Z,12.86
2019-05-16T07:51:10.098Z,12.70
2019-05-16T07:52:16.389Z,12.63
2019-05-16T07:53:07.350Z,12.54
2019-05-16T07:54:22.873Z,12.51
2019-05-16T07:55:07.312Z,12.53
2019-05-16T07:56:10.457Z,12.32
2019-05-16T07:57:18.545Z,12.51
2019-05-16T07:58:10.227Z,12.50
2019-05-16T07:59:07.328Z,12.55
2019-05-16T08:00:09.518Z,12.37
2019-05-16T08:01:10.218Z,12.21
2019-05-16T08:02:10.795Z,12.23
2019-05-16T08:03:07.278Z,12.43
2019-05-16T08:04:07.220Z,12.36
2019-05-16T08:05:07.263Z,12.37
2019-05-16T08:06:07.198Z,12.54
2019-05-16T08:07:07.278Z,12.65
2019-05-16T08:08:07.188Z,12.45
2019-05-16T08:09:07.979Z,12.43
2019-05-16T08:10:07.155Z,12.51
2019-05-16T08:11:07.200Z,12.76
2019-05-16T08:12:07.128Z,12.95
2019-05-16T08:13:07.243Z,12.86
2019-05-16T08:14:07.117Z,12.95
2019-05-16T08:15:07.130Z,13.23
2019-05-16T08:16:09.406Z,13.39
2019-05-16T08:17:07.139Z,13.61
2019-05-16T08:18:07.062Z,13.75
2019-05-16T08:19:07.079Z,14.03
2019-05-16T08:20:07.038Z,14.11
2019-05-16T08:21:07.067Z,14.11
2019-05-16T08:22:07.027Z,13.86
2019-05-16T08:23:07.110Z,13.50
2019-05-16T08:24:08.343Z,13.36
2019-05-16T08:25:10.478Z,13.23
2019-05-16T08:26:06.978Z,13.23
2019-05-16T08:27:07.005Z,13.26
2019-05-16T08:28:06.956Z,13.31
2019-05-16T08:29:07.045Z,13.26
2019-05-16T08:30:06.931Z,13.50
2019-05-16T08:31:06.928Z,13.67
2019-05-16T08:32:06.907Z,13.61
2019-05-16T08:33:06.942Z,13.73
2019-05-16T08:34:06.900Z,14.08
2019-05-16T08:35:10.917Z,14.37
2019-05-16T08:37:30.664Z,14.38
2019-05-16T08:38:07.898Z,14.52
2019-05-16T08:39:06.851Z,14.52
2019-05-16T08:40:06.887Z,14.08
2019-05-16T08:41:12.831Z,14.13
2019-05-16T08:42:08.726Z,13.83
2019-05-16T08:43:07.831Z,13.78
2019-05-16T08:44:06.789Z,13.45
2019-05-16T08:45:06.820Z,13.65
2019-05-16T08:46:06.753Z,13.98
2019-05-16T08:47:06.846Z,14.11
2019-05-16T08:48:06.729Z,14.08
2019-05-16T08:49:06.773Z,13.94
2019-05-16T08:50:13.734Z,13.82
2019-05-16T08:51:07.699Z,13.83
2019-05-16T08:52:06.686Z,13.75
2019-05-16T08:53:06.772Z,13.79
2019-05-16T08:54:06.689Z,13.78
2019-05-16T08:55:06.683Z,13.73
2019-05-16T08:56:06.642Z,13.50
2019-05-16T08:57:24.379Z,13.39
2019-05-16T08:58:13.259Z,13.33
2019-05-16T08:59:07.705Z,13.39
2019-05-16T09:00:06.607Z,13.58
2019-05-16T09:01:06.621Z,13.75
2019-05-16T09:02:06.580Z,13.54
2019-05-16T09:03:06.637Z,13.39
2019-05-16T09:04:06.607Z,13.50
2019-05-16T09:05:13.058Z,13.46
2019-05-16T09:06:11.531Z,13.27
2019-05-16T09:07:06.565Z,13.31
2019-05-16T09:08:06.514Z,13.36
2019-05-16T09:09:22.267Z,13.39
2019-05-16T09:10:28.429Z,14.28
2019-05-16T09:10:40.811Z,13.42
2019-05-16T09:11:27.079Z,13.49
2019-05-16T09:12:07.907Z,13.68
2019-05-16T09:13:07.235Z,13.75
2019-05-16T09:14:07.949Z,13.52
2019-05-16T09:15:09.696Z,13.31
2019-05-16T09:16:07.775Z,13.19
2019-05-16T09:17:07.457Z,13.13
2019-05-16T09:18:07.555Z,13.01
2019-05-16T09:19:07.733Z,12.87
2019-05-16T09:20:07.381Z,12.76
2019-05-16T09:21:07.315Z,12.72
2019-05-16T09:22:13.493Z,12.69
2019-05-16T09:23:07.554Z,12.53
2019-05-16T09:24:06.868Z,12.45
2019-05-16T09:25:08.013Z,12.36
2019-05-16T09:26:07.639Z,12.33
2019-05-16T09:27:12.213Z,12.33
2019-05-16T09:28:07.593Z,12.35
2019-05-16T09:29:08.298Z,12.32
2019-05-16T09:30:07.197Z,12.26
2019-05-16T09:31:07.127Z,12.25
2019-05-16T09:32:12.775Z,12.12
2019-05-16T09:33:07.400Z,12.17
2019-05-16T09:34:07.425Z,12.05
2019-05-16T09:35:07.848Z,11.85
2019-05-16T09:36:08.031Z,11.99
2019-05-16T09:37:08.505Z,12.03
2019-05-16T09:38:07.198Z,12.20
2019-05-16T09:39:08.340Z,12.25
2019-05-16T09:40:06.567Z,12.23
2019-05-16T09:41:07.908Z,12.25
2019-05-16T09:42:08.254Z,12.25
2019-05-16T09:43:07.586Z,12.28
2019-05-16T09:44:08.703Z,12.30
2019-05-16T09:45:07.324Z,12.26
2019-05-16T09:46:07.830Z,12.28
2019-05-16T09:47:07.592Z,12.25
2019-05-16T09:48:08.120Z,12.14
2019-05-16T09:49:16.960Z,12.07
2019-05-16T09:50:07.065Z,12.03
2019-05-16T09:51:06.767Z,12.10
2019-05-16T09:52:07.438Z,12.08
2019-05-16T09:53:07.210Z,12.05
2019-05-16T09:54:07.189Z,11.99
2019-05-16T09:55:07.115Z,12.03
2019-05-16T09:56:07.028Z,12.12
2019-05-16T09:57:06.567Z,12.33
2019-05-16T09:58:07.392Z,12.54
2019-05-16T09:59:06.917Z,12.68
2019-05-16T10:00:06.784Z,12.80
2019-05-16T10:01:05.961Z,12.58
2019-05-16T10:02:07.384Z,12.30
2019-05-16T10:03:07.138Z,12.37
2019-05-16T10:04:06.681Z,12.53
2019-05-16T10:05:13.246Z,12.48
2019-05-16T10:06:08.078Z,12.53
2019-05-16T10:08:17.079Z,12.36
2019-05-16T10:09:17.235Z,12.44
2019-05-16T10:10:16.904Z,12.47
2019-05-16T10:11:17.860Z,12.61
2019-05-16T10:12:16.355Z,12.81
2019-05-16T10:13:14.569Z,12.83
2019-05-16T10:14:14.597Z,13.02
2019-05-16T10:15:14.543Z,13.09
2019-05-16T10:16:16.686Z,13.28
2019-05-16T10:17:14.520Z,13.52
2019-05-16T10:18:16.654Z,13.75
2019-05-16T10:19:16.805Z,13.94
2019-05-16T10:20:16.734Z,13.75
2019-05-16T10:21:17.886Z,13.36
2019-05-16T10:22:17.045Z,13.36
2019-05-16T10:23:17.555Z,13.42
2019-05-16T10:24:14.468Z,13.37
2019-05-16T10:25:19.029Z,13.21
2019-05-16T10:26:17.208Z,13.39
2019-05-16T10:27:14.419Z,13.33
2019-05-16T10:28:14.491Z,13.26
2019-05-16T10:29:14.392Z,13.40
2019-05-16T10:30:14.403Z,13.26
2019-05-16T10:31:14.391Z,13.06
2019-05-16T10:32:16.775Z,13.01
2019-05-16T10:33:18.566Z,13.05
2019-05-16T10:34:14.430Z,13.02
2019-05-16T10:35:14.321Z,12.70
2019-05-16T10:36:17.172Z,12.75
2019-05-16T10:37:17.614Z,12.78
2019-05-16T10:38:14.312Z,12.75
2019-05-16T10:39:14.277Z,12.68
2019-05-16T10:40:17.672Z,12.72
2019-05-16T10:41:14.276Z,12.75
2019-05-16T10:42:27.258Z,12.83
2019-05-16T10:43:17.244Z,12.80
2019-05-16T10:44:17.215Z,12.76
2019-05-16T10:45:16.484Z,12.63
2019-05-16T10:46:14.251Z,12.75
2019-05-16T10:47:17.041Z,12.73
2019-05-16T10:48:14.221Z,12.78
2019-05-16T10:49:16.505Z,12.83
2019-05-16T10:50:16.484Z,12.73
2019-05-16T10:51:14.165Z,12.78
2019-05-16T10:52:16.533Z,12.72
2019-05-16T10:53:42.374Z,12.78
2019-05-16T10:54:18.104Z,12.62
2019-05-16T10:55:14.125Z,12.61
2019-05-16T10:56:14.270Z,12.86
2019-05-16T10:57:14.129Z,12.87
2019-05-16T10:58:32.470Z,12.84
2019-05-16T10:59:53.248Z,12.58
2019-05-16T11:00:34.917Z,12.62
2019-05-16T11:01:26.615Z,12.58
2019-05-16T11:02:16.702Z,12.68
2019-05-16T11:03:14.134Z,12.73
2019-05-16T11:04:26.181Z,12.65
2019-05-16T11:05:29.363Z,12.69
2019-05-16T11:06:25.277Z,12.76
2019-05-16T11:07:14.974Z,12.69
2019-05-16T11:08:14.046Z,12.84
2019-05-16T11:09:13.948Z,12.91
2019-05-16T11:10:13.965Z,12.83
2019-05-16T11:11:13.938Z,12.70
2019-05-16T11:12:13.992Z,12.76
2019-05-16T11:13:13.908Z,12.91
2019-05-16T11:14:13.987Z,13.12
2019-05-16T11:15:13.881Z,13.20
2019-05-16T11:16:13.910Z,13.17
2019-05-16T11:17:14.218Z,13.16
2019-05-16T11:18:13.945Z,13.09
2019-05-16T11:19:20.252Z,13.23
2019-05-16T11:20:19.648Z,13.27
2019-05-16T11:21:19.004Z,13.06
2019-05-16T11:22:13.817Z,12.83
2019-05-16T11:23:13.805Z,12.54
2019-05-16T11:24:13.819Z,12.53
2019-05-16T11:25:24.696Z,12.62
2019-05-16T11:26:14.762Z,12.61
2019-05-16T11:27:13.798Z,12.68
2019-05-16T11:28:13.743Z,12.63
2019-05-16T11:29:13.787Z,12.73
2019-05-16T11:30:17.803Z,12.69
2019-05-16T11:31:13.813Z,12.76
2019-05-16T11:32:13.716Z,12.76
2019-05-16T11:33:13.709Z,12.72
2019-05-16T11:34:13.673Z,12.51
2019-05-16T11:35:13.725Z,12.37
2019-05-16T11:36:13.658Z,12.39
2019-05-16T11:37:13.767Z,12.37
2019-05-16T11:38:13.636Z,12.25
2019-05-16T11:39:13.648Z,12.08
2019-05-16T11:40:13.614Z,11.83
2019-05-16T11:41:13.663Z,11.78
2019-05-16T11:42:13.608Z,11.85
2019-05-16T11:43:18.315Z,11.97
2019-05-16T11:44:17.411Z,12.02
2019-05-16T11:45:13.589Z,11.95
2019-05-16T11:46:13.542Z,11.95
2019-05-16T11:47:13.636Z,11.80
2019-05-16T11:48:13.522Z,11.89
2019-05-16T11:49:13.611Z,11.85
2019-05-16T11:50:13.495Z,11.67
2019-05-16T11:51:13.522Z,11.52
2019-05-16T11:52:13.493Z,11.51
2019-05-16T11:53:13.542Z,11.52
2019-05-16T11:54:13.454Z,11.58
2019-05-16T11:55:13.556Z,11.58
2019-05-16T11:56:13.436Z,11.53
2019-05-16T11:57:13.494Z,11.53
2019-05-16T11:58:13.411Z,11.49
2019-05-16T11:59:13.481Z,11.37
2019-05-16T12:00:13.384Z,11.41
2019-05-16T12:01:20.350Z,11.37
2019-05-16T12:02:13.376Z,11.37
2019-05-16T12:03:28.508Z,11.30
2019-05-16T12:04:13.346Z,11.07
2019-05-16T12:05:13.418Z,11.20
2019-05-16T12:06:13.318Z,11.38
2019-05-16T12:07:13.355Z,11.49
2019-05-16T12:08:13.295Z,11.26
2019-05-16T12:09:13.340Z,11.19
2019-05-16T12:10:13.276Z,11.13
2019-05-16T12:11:13.352Z,11.10
2019-05-16T12:12:13.285Z,11.00
2019-05-16T12:13:25.240Z,10.79
2019-05-16T12:14:16.471Z,10.80
2019-05-16T12:15:16.700Z,10.58
2019-05-16T12:16:16.378Z,10.48
2019-05-16T12:17:13.293Z,10.49
2019-05-16T12:18:13.201Z,10.51
2019-05-16T12:19:13.203Z,10.42
2019-05-16T12:20:13.160Z,10.49
2019-05-16T12:21:13.248Z,10.45
2019-05-16T12:22:13.140Z,10.49
2019-05-16T12:23:13.159Z,10.45
2019-05-16T12:24:29.075Z,10.57
2019-05-16T12:25:16.581Z,10.55
2019-05-16T12:26:13.159Z,10.45
2019-05-16T12:27:13.088Z,10.46
2019-05-16T12:28:13.201Z,10.38
2019-05-16T12:29:13.123Z,10.25
2019-05-16T12:30:14.128Z,10.34
2019-05-16T12:31:13.046Z,10.25
2019-05-16T12:32:13.093Z,10.23
2019-05-16T12:33:13.052Z,10.21
2019-05-16T12:34:13.116Z,10.15
2019-05-16T12:35:12.996Z,10.25
2019-05-16T12:36:13.039Z,10.21
2019-05-16T12:37:12.987Z,10.21
2019-05-16T12:38:13.059Z,10.21
2019-05-16T12:39:12.954Z,10.21
2019-05-16T12:40:13.042Z,10.12
2019-05-16T12:41:12.932Z,10.00
2019-05-16T12:42:12.955Z,9.91
2019-05-16T12:43:12.947Z,9.80
2019-05-16T12:44:12.972Z,9.67
2019-05-16T12:45:12.887Z,9.59
2019-05-16T12:46:12.985Z,9.59
2019-05-16T12:47:12.873Z,9.80
2019-05-16T12:48:16.241Z,9.84
2019-05-16T12:49:12.861Z,9.77
2019-05-16T12:50:13.932Z,9.77
2019-05-16T12:51:12.833Z,9.76
2019-05-16T12:52:12.917Z,9.66
2019-05-16T12:53:12.825Z,9.70
2019-05-16T12:54:12.829Z,9.81
2019-05-16T12:55:12.785Z,9.80
2019-05-16T12:56:17.362Z,9.74
2019-05-16T12:57:12.791Z,9.74
2019-05-16T12:58:13.659Z,9.87
2019-05-16T12:59:20.561Z,9.91
2019-05-16T13:00:15.635Z,9.87
2019-05-16T13:01:16.189Z,9.85
2019-05-16T13:02:12.704Z,9.80
2019-05-16T13:03:12.840Z,9.80
2019-05-16T13:04:12.782Z,9.82